Time;durP1;ratioP1;P1;durP2;ratioP2;P2;SDS_P1;SDS_P2;PMS_P1;PMS_P2;Temp;Humidity;BMP_temperature;BMP_pressure;BME280_temperature;BME280_humidity;BME280_pressure;Samples;Min_cycle;Max_cycle;Signal;HPM_P1;HPM_P2
2020/12/31 00:00:45;;;;;;;4.03;3.65;;;1.40;99.90;;;;;;4986503;28;20207;-69
2020/12/31 00:03:12;;;;;;;4.05;3.65;;;1.50;99.90;;;;;;4985173;28;20227;-70
2020/12/31 00:05:38;;;;;;;3.90;3.40;;;1.40;99.90;;;;;;4986370;28;20562;-69
2020/12/31 00:08:04;;;;;;;3.90;3.50;;;1.50;99.90;;;;;;4986266;28;20214;-69
2020/12/31 00:10:30;;;;;;;4.80;3.60;;;1.50;99.90;;;;;;4986222;28;20254;-70
2020/12/31 00:12:57;;;;;;;4.40;3.67;;;1.60;99.90;;;;;;4984872;28;20239;-70
2020/12/31 00:15:24;;;;;;;3.38;2.67;;;1.60;99.90;;;;;;4985190;28;20203;-69
2020/12/31 00:17:51;;;;;;;3.38;2.63;;;1.60;99.90;;;;;;4985698;28;20257;-70
2020/12/31 00:20:17;;;;;;;2.67;2.47;;;1.60;99.90;;;;;;4985165;28;20219;-69
2020/12/31 00:22:43;;;;;;;3.50;3.08;;;1.60;99.90;;;;;;4984742;28;20253;-69
2020/12/31 00:25:10;;;;;;;3.28;2.80;;;1.60;99.90;;;;;;4985128;28;20207;-70
2020/12/31 00:27:36;;;;;;;4.88;2.83;;;1.60;99.90;;;;;;4985899;28;20210;-69
2020/12/31 00:30:06;;;;;;;3.42;3.13;;;1.60;99.90;;;;;;4985944;28;20253;-68
2020/12/31 00:32:33;;;;;;;3.75;2.55;;;1.50;99.90;;;;;;4985953;28;20203;-69
2020/12/31 00:34:59;;;;;;;4.22;2.90;;;1.40;99.90;;;;;;4985868;28;20223;-69
2020/12/31 00:37:25;;;;;;;3.05;2.60;;;1.30;99.90;;;;;;4985756;28;20577;-70
2020/12/31 00:39:52;;;;;;;2.55;2.35;;;1.20;99.90;;;;;;4985303;28;20230;-69
2020/12/31 00:42:18;;;;;;;3.08;2.78;;;1.20;99.90;;;;;;4984836;28;20211;-68
2020/12/31 00:44:44;;;;;;;2.88;2.30;;;1.10;99.90;;;;;;4985306;28;20261;-69
2020/12/31 00:47:10;;;;;;;2.72;2.50;;;1.10;99.90;;;;;;4985465;28;20214;-69
2020/12/31 00:49:37;;;;;;;3.30;2.95;;;1.10;99.90;;;;;;4985572;28;20616;-69
2020/12/31 00:52:04;;;;;;;2.60;2.40;;;1.10;99.90;;;;;;4984904;28;20612;-67
2020/12/31 00:54:30;;;;;;;3.97;2.95;;;1.00;99.90;;;;;;4985346;28;20234;-69
2020/12/31 00:56:56;;;;;;;3.30;2.75;;;1.00;99.90;;;;;;4985189;28;20242;-68
2020/12/31 00:59:22;;;;;;;2.47;2.28;;;1.00;99.90;;;;;;4985698;28;20246;-68
2020/12/31 01:01:48;;;;;;;2.80;2.60;;;0.90;99.90;;;;;;4985077;28;20214;-68
2020/12/31 01:04:14;;;;;;;2.97;2.60;;;0.90;99.90;;;;;;4985425;28;20227;-68
2020/12/31 01:06:41;;;;;;;2.97;2.60;;;0.80;99.90;;;;;;4985401;28;20257;-69
2020/12/31 01:09:08;;;;;;;3.83;3.20;;;0.80;99.90;;;;;;4986559;28;20210;-69
2020/12/31 01:11:36;;;;;;;2.67;2.45;;;0.80;99.90;;;;;;4989105;28;20222;-68
2020/12/31 01:16:35;;;;;;;6.65;2.65;;;0.80;99.90;;;;;;4970128;28;20258;-73
2020/12/31 01:19:02;;;;;;;2.60;2.40;;;0.80;99.90;;;;;;4973018;28;20219;-73
2020/12/31 01:21:28;;;;;;;2.90;2.53;;;0.70;99.90;;;;;;4973043;28;20616;-72
2020/12/31 01:24:04;;;;;;;3.38;2.83;;;0.70;99.90;;;;;;4973061;28;20224;-72
2020/12/31 01:26:31;;;;;;;3.50;3.20;;;0.60;99.90;;;;;;4971746;28;20210;-72
2020/12/31 01:28:58;;;;;;;3.70;3.10;;;0.60;99.90;;;;;;4973134;28;20204;-72
2020/12/31 01:31:25;;;;;;;2.90;2.70;;;0.60;99.90;;;;;;4972785;28;20208;-72
2020/12/31 01:33:51;;;;;;;4.35;3.10;;;0.60;99.90;;;;;;4972685;28;20301;-72
2020/12/31 01:36:17;;;;;;;3.45;3.15;;;0.60;99.90;;;;;;4973014;28;20223;-72
2020/12/31 01:38:45;;;;;;;3.92;3.33;;;0.50;99.90;;;;;;4972971;28;20588;-73
2020/12/31 01:41:12;;;;;;;5.15;3.70;;;0.50;99.90;;;;;;4972689;28;20230;-72
2020/12/31 01:43:38;;;;;;;3.70;2.90;;;0.50;99.90;;;;;;4972117;28;20700;-72
2020/12/31 01:46:05;;;;;;;3.88;3.30;;;0.50;99.90;;;;;;4972794;28;20208;-72
2020/12/31 01:48:31;;;;;;;4.93;3.42;;;0.60;99.90;;;;;;4972589;28;20745;-72
2020/12/31 01:50:57;;;;;;;3.80;3.50;;;0.60;99.90;;;;;;4972945;28;20214;-72
2020/12/31 01:53:23;;;;;;;3.80;3.30;;;0.70;99.90;;;;;;4971878;28;20234;-72
2020/12/31 01:55:50;;;;;;;3.90;3.45;;;0.70;99.90;;;;;;4972667;28;20493;-72
2020/12/31 01:58:17;;;;;;;6.30;3.70;;;0.70;99.90;;;;;;4972655;28;20203;-72
2020/12/31 02:00:43;;;;;;;4.03;3.30;;;0.80;99.90;;;;;;4972310;28;20196;-72
2020/12/31 02:03:09;;;;;;;5.80;3.70;;;0.80;99.90;;;;;;4971763;28;20640;-72
2020/12/31 02:05:36;;;;;;;4.70;3.65;;;0.80;99.90;;;;;;4971961;28;20201;-72
2020/12/31 02:08:02;;;;;;;7.70;3.90;;;0.90;99.90;;;;;;4972400;28;20266;-72
2020/12/31 02:10:28;;;;;;;5.50;3.70;;;0.90;99.90;;;;;;4971978;28;20730;-72
2020/12/31 02:12:56;;;;;;;4.80;3.90;;;0.90;99.90;;;;;;4970296;28;20204;-72
2020/12/31 02:15:23;;;;;;;5.05;4.00;;;0.90;99.90;;;;;;4969788;28;20216;-72
2020/12/31 02:17:49;;;;;;;5.40;3.17;;;0.90;99.90;;;;;;4972016;28;20215;-72
2020/12/31 02:20:15;;;;;;;4.22;3.83;;;0.90;99.90;;;;;;4971260;28;20227;-72
2020/12/31 02:22:42;;;;;;;4.15;3.72;;;0.90;99.90;;;;;;4971334;28;20210;-72
2020/12/31 02:25:09;;;;;;;4.53;3.75;;;0.90;99.90;;;;;;4971770;28;20219;-72
2020/12/31 02:27:35;;;;;;;7.00;3.72;;;0.90;99.90;;;;;;4971724;28;20215;-72
2020/12/31 02:30:01;;;;;;;5.80;4.13;;;0.90;99.90;;;;;;4971875;28;20200;-72
2020/12/31 02:32:27;;;;;;;4.00;3.60;;;0.90;99.90;;;;;;4971171;28;20259;-72
2020/12/31 02:34:54;;;;;;;5.60;3.45;;;0.90;99.90;;;;;;4971648;28;20223;-72
2020/12/31 02:37:20;;;;;;;4.00;3.60;;;0.90;99.90;;;;;;4971623;28;20207;-72
2020/12/31 02:39:47;;;;;;;4.50;4.10;;;0.90;99.90;;;;;;4971548;28;20230;-72
2020/12/31 02:42:13;;;;;;;4.50;3.90;;;0.90;99.90;;;;;;4971191;28;20222;-73
2020/12/31 02:44:39;;;;;;;5.10;3.85;;;0.90;99.90;;;;;;4971451;28;20242;-72
2020/12/31 02:47:05;;;;;;;4.63;3.92;;;0.90;99.90;;;;;;4971476;28;20388;-72
2020/12/31 02:49:31;;;;;;;5.82;4.10;;;0.80;99.90;;;;;;4971391;28;20204;-72
2020/12/31 02:51:58;;;;;;;5.97;3.67;;;0.80;99.90;;;;;;4971038;28;20364;-72
2020/12/31 02:54:24;;;;;;;4.78;3.92;;;0.70;99.90;;;;;;4971145;28;20220;-72
2020/12/31 02:56:51;;;;;;;4.43;3.60;;;0.60;99.90;;;;;;4971494;28;20443;-72
2020/12/31 02:59:17;;;;;;;4.40;3.70;;;0.50;99.90;;;;;;4970867;28;20224;-72
2020/12/31 03:01:43;;;;;;;4.35;3.95;;;0.40;99.90;;;;;;4970780;28;20204;-72
2020/12/31 03:04:09;;;;;;;5.70;4.32;;;0.30;99.90;;;;;;4971328;28;20227;-72
2020/12/31 03:06:35;;;;;;;5.50;4.78;;;0.20;99.90;;;;;;4971024;28;20584;-72
2020/12/31 03:09:02;;;;;;;5.65;4.15;;;0.20;99.90;;;;;;4971314;28;20235;-72
2020/12/31 03:11:28;;;;;;;3.58;3.25;;;0.10;99.90;;;;;;4970965;28;20215;-72
2020/12/31 03:13:55;;;;;;;4.63;3.72;;;0.10;99.90;;;;;;4970775;28;20246;-72
2020/12/31 03:16:21;;;;;;;4.55;3.72;;;0.00;99.90;;;;;;4970592;28;20672;-73
2020/12/31 03:18:48;;;;;;;5.03;3.70;;;-0.10;99.90;;;;;;4971076;28;20235;-73
2020/12/31 03:21:15;;;;;;;5.10;4.55;;;-0.20;99.90;;;;;;4970691;28;20208;-72
2020/12/31 03:23:41;;;;;;;4.65;3.88;;;-0.30;99.90;;;;;;4970244;28;20238;-73
2020/12/31 03:26:08;;;;;;;4.93;4.43;;;-0.40;99.90;;;;;;4971069;28;20207;-73
2020/12/31 03:28:34;;;;;;;4.32;3.90;;;-0.40;99.90;;;;;;4970465;28;20640;-73
2020/12/31 03:31:01;;;;;;;6.05;4.47;;;-0.50;99.90;;;;;;4971051;28;20212;-72
2020/12/31 03:33:27;;;;;;;5.47;4.20;;;-0.50;99.90;;;;;;4969579;28;20815;-72
2020/12/31 03:35:53;;;;;;;5.20;4.70;;;-0.50;99.90;;;;;;4970854;28;20204;-72
2020/12/31 03:38:21;;;;;;;5.10;3.95;;;-0.50;99.90;;;;;;4970514;28;20208;-72
2020/12/31 03:40:48;;;;;;;5.30;4.40;;;-0.60;99.90;;;;;;4970488;28;20551;-73
2020/12/31 03:43:14;;;;;;;5.10;4.43;;;-0.60;99.90;;;;;;4969790;28;20286;-72
2020/12/31 03:45:41;;;;;;;7.45;4.38;;;-0.60;99.90;;;;;;4970557;28;20208;-72
2020/12/31 03:48:10;;;;;;;6.22;4.47;;;-0.60;99.90;;;;;;4970596;28;20580;-72
2020/12/31 03:50:36;;;;;;;5.40;4.43;;;-0.60;99.90;;;;;;4970045;28;20200;-72
2020/12/31 03:53:03;;;;;;;5.65;4.63;;;-0.60;99.90;;;;;;4969741;28;20282;-72
2020/12/31 03:55:29;;;;;;;5.70;4.43;;;-0.60;99.90;;;;;;4970235;28;20239;-72
2020/12/31 03:57:55;;;;;;;6.13;4.35;;;-0.70;99.90;;;;;;4970096;28;20203;-72
2020/12/31 04:00:21;;;;;;;5.90;4.32;;;-0.70;99.90;;;;;;4970001;28;20579;-72
2020/12/31 04:02:47;;;;;;;7.43;5.10;;;-0.70;99.90;;;;;;4969632;28;20204;-72
2020/12/31 04:05:14;;;;;;;6.05;4.30;;;-0.70;99.90;;;;;;4970007;28;20211;-72
2020/12/31 04:07:41;;;;;;;6.35;5.13;;;-0.70;99.90;;;;;;4970212;28;20212;-72
2020/12/31 04:10:07;;;;;;;5.38;4.20;;;-0.70;99.90;;;;;;4970080;28;20200;-72
2020/12/31 04:12:33;;;;;;;5.90;4.55;;;-0.80;99.90;;;;;;4969409;28;20214;-72
2020/12/31 04:14:59;;;;;;;6.47;4.93;;;-0.80;99.90;;;;;;4969915;28;20247;-72
2020/12/31 04:17:26;;;;;;;5.07;4.32;;;-0.80;99.90;;;;;;4969729;28;20568;-72
2020/12/31 04:19:52;;;;;;;5.72;3.83;;;-0.80;99.90;;;;;;4969942;28;20430;-72
2020/12/31 04:22:19;;;;;;;4.95;3.92;;;-0.80;99.90;;;;;;4969516;28;20436;-72
2020/12/31 04:24:45;;;;;;;4.85;4.25;;;-0.80;99.90;;;;;;4970158;28;20224;-72
2020/12/31 04:27:12;;;;;;;5.50;4.47;;;-0.80;99.90;;;;;;4970064;28;20204;-72
2020/12/31 04:29:38;;;;;;;5.63;3.30;;;-0.80;99.90;;;;;;4969817;28;20200;-73
2020/12/31 04:32:04;;;;;;;3.72;3.25;;;-0.90;99.90;;;;;;4969611;28;20203;-72
2020/12/31 04:34:31;;;;;;;4.28;3.83;;;-0.90;99.90;;;;;;4969816;28;20224;-72
2020/12/31 04:36:57;;;;;;;5.30;4.30;;;-0.90;99.90;;;;;;4969988;28;20560;-72
2020/12/31 04:39:24;;;;;;;6.28;3.88;;;-1.00;99.90;;;;;;4969641;28;20215;-72
2020/12/31 04:41:50;;;;;;;5.18;3.60;;;-1.00;99.90;;;;;;4969078;28;20224;-72
2020/12/31 04:44:16;;;;;;;4.18;3.78;;;-1.00;99.90;;;;;;4971281;28;20223;-72
2020/12/31 04:46:49;;;;;;;4.10;3.60;;;-1.10;99.90;;;;;;4973588;28;20207;-72
2020/12/31 04:49:21;;;;;;;5.20;3.67;;;-1.10;99.90;;;;;;4973685;28;20254;-72
2020/12/31 04:51:48;;;;;;;5.40;3.50;;;-1.20;99.90;;;;;;4972908;28;20203;-72
2020/12/31 04:54:16;;;;;;;4.57;3.67;;;-1.10;99.90;;;;;;4973381;28;20281;-72
2020/12/31 04:56:44;;;;;;;3.78;3.47;;;-1.10;99.90;;;;;;4973314;28;20394;-71
2020/12/31 04:59:10;;;;;;;4.68;3.55;;;-1.10;99.90;;;;;;4973335;28;20271;-71
2020/12/31 05:01:36;;;;;;;3.55;3.13;;;-1.10;99.90;;;;;;4972902;28;20215;-71
2020/12/31 05:04:02;;;;;;;4.95;3.60;;;-1.00;99.90;;;;;;4973071;28;20227;-72
2020/12/31 05:06:36;;;;;;;4.20;3.50;;;-1.00;99.90;;;;;;4973139;28;20676;-72
2020/12/31 05:09:13;;;;;;;4.70;3.40;;;-1.00;99.90;;;;;;4973358;28;20286;-72
2020/12/31 05:11:48;;;;;;;4.50;4.10;;;-0.90;99.90;;;;;;4972448;28;20956;-72
2020/12/31 05:14:26;;;;;;;3.30;3.00;;;-1.00;99.90;;;;;;4972839;28;20298;-72
2020/12/31 05:16:52;;;;;;;3.85;3.45;;;-0.90;99.90;;;;;;4973142;28;20235;-71
2020/12/31 05:19:23;;;;;;;3.55;3.25;;;-0.90;99.90;;;;;;4972784;28;20219;-71
2020/12/31 05:22:11;;;;;;;3.60;3.30;;;-0.90;99.90;;;;;;4972953;28;20207;-72
2020/12/31 05:24:37;;;;;;;4.78;3.75;;;-0.90;99.90;;;;;;4972693;28;20254;-72
2020/12/31 05:27:20;;;;;;;3.50;3.20;;;-1.00;99.90;;;;;;4972778;28;20207;-72
2020/12/31 05:30:01;;;;;;;5.60;3.40;;;-1.00;99.90;;;;;;4972932;28;20578;-72
2020/12/31 05:32:29;;;;;;;4.30;3.90;;;-1.00;99.90;;;;;;4972009;28;20601;-73
2020/12/31 05:34:56;;;;;;;4.10;3.60;;;-1.00;99.90;;;;;;4972788;28;20228;-72
2020/12/31 05:37:24;;;;;;;4.93;3.15;;;-1.00;99.90;;;;;;4972606;28;20630;-73
2020/12/31 05:40:09;;;;;;;3.42;2.80;;;-1.00;99.90;;;;;;4972296;28;20606;-72
2020/12/31 05:42:38;;;;;;;4.32;2.80;;;-1.00;99.90;;;;;;4971968;28;20219;-72
2020/12/31 05:45:13;;;;;;;3.45;3.13;;;-1.00;99.90;;;;;;4972412;28;20230;-72
2020/12/31 05:47:47;;;;;;;3.67;3.30;;;-1.00;99.90;;;;;;4972536;28;20310;-73
2020/12/31 05:50:19;;;;;;;2.55;2.35;;;-1.10;99.90;;;;;;4972222;28;20207;-73
2020/12/31 05:52:47;;;;;;;3.50;3.00;;;-1.10;99.90;;;;;;4972075;28;20211;-72
2020/12/31 05:55:15;;;;;;;6.47;3.50;;;-1.10;99.90;;;;;;4971476;28;20203;-72
2020/12/31 05:57:45;;;;;;;3.22;2.92;;;-1.10;99.90;;;;;;4972462;28;20266;-72
2020/12/31 06:00:13;;;;;;;4.28;3.47;;;-1.20;99.90;;;;;;4972217;28;20223;-73
2020/12/31 06:02:48;;;;;;;3.03;2.78;;;-1.20;99.90;;;;;;4971710;28;20204;-72
2020/12/31 06:05:16;;;;;;;3.70;3.13;;;-1.20;99.90;;;;;;4972288;28;20267;-72
2020/12/31 06:07:48;;;;;;;3.88;3.47;;;-1.10;99.90;;;;;;4972072;28;20330;-72
2020/12/31 06:10:19;;;;;;;3.67;3.08;;;-1.10;99.90;;;;;;4971857;28;20227;-73
2020/12/31 06:12:54;;;;;;;3.75;3.35;;;-1.10;99.90;;;;;;4971557;28;20204;-72
2020/12/31 06:15:22;;;;;;;3.22;2.75;;;-1.10;99.90;;;;;;4971580;28;20270;-72
2020/12/31 06:17:51;;;;;;;3.70;3.05;;;-1.10;99.90;;;;;;4971935;28;20206;-72
2020/12/31 06:20:19;;;;;;;3.95;3.03;;;-1.10;99.90;;;;;;4971492;28;20219;-72
2020/12/31 06:23:07;;;;;;;4.47;2.95;;;-1.20;99.90;;;;;;4971437;28;20286;-72
2020/12/31 06:25:41;;;;;;;5.22;4.10;;;-1.20;99.90;;;;;;4971520;28;20215;-72
2020/12/31 06:28:16;;;;;;;3.72;3.33;;;-1.20;99.90;;;;;;4971837;28;20200;-72
2020/12/31 06:30:45;;;;;;;4.57;3.60;;;-1.20;99.90;;;;;;4971722;28;20203;-73
2020/12/31 06:33:24;;;;;;;3.67;3.17;;;-1.10;99.90;;;;;;4971099;28;20228;-72
2020/12/31 06:35:55;;;;;;;4.40;3.33;;;-1.10;99.90;;;;;;4971606;28;20204;-72
2020/12/31 06:38:32;;;;;;;3.65;2.90;;;-1.10;99.90;;;;;;4971574;28;20286;-72
2020/12/31 06:40:59;;;;;;;4.60;3.20;;;-1.00;99.90;;;;;;4971359;28;20289;-72
2020/12/31 06:43:34;;;;;;;4.43;3.55;;;-1.00;99.90;;;;;;4970855;28;20223;-72
2020/12/31 06:46:00;;;;;;;3.90;3.45;;;-1.00;99.90;;;;;;4971392;28;20261;-72
2020/12/31 06:48:37;;;;;;;3.85;3.38;;;-1.00;99.90;;;;;;4971101;28;20675;-72
2020/12/31 06:51:08;;;;;;;4.85;3.50;;;-0.90;99.90;;;;;;4971618;28;20563;-72
2020/12/31 06:53:36;;;;;;;4.90;4.07;;;-0.90;99.90;;;;;;4970529;28;20223;-72
2020/12/31 06:56:04;;;;;;;4.18;3.63;;;-0.90;99.90;;;;;;4970927;28;20675;-72
2020/12/31 06:58:31;;;;;;;5.00;3.78;;;-0.90;99.90;;;;;;4971063;28;20211;-72
2020/12/31 07:00:58;;;;;;;3.85;3.35;;;-0.90;99.90;;;;;;4971070;28;20659;-72
2020/12/31 07:03:49;;;;;;;5.57;3.72;;;-0.90;99.90;;;;;;4970401;28;20223;-72
2020/12/31 07:06:34;;;;;;;4.40;3.42;;;-0.90;99.90;;;;;;4970878;28;20208;-72
2020/12/31 07:09:04;;;;;;;4.65;3.90;;;-0.90;99.90;;;;;;4970809;28;20261;-72
2020/12/31 07:11:35;;;;;;;5.30;3.65;;;-0.90;99.90;;;;;;4970762;28;20208;-72
2020/12/31 07:14:21;;;;;;;5.20;4.15;;;-0.90;99.90;;;;;;4970839;28;20231;-72
2020/12/31 07:17:00;;;;;;;5.07;3.90;;;-0.90;99.90;;;;;;5053983;22;20215;-95
2020/12/31 07:19:37;;;;;;;4.85;3.75;;;-0.80;99.90;;;;;;5009752;28;20258;-95
2020/12/31 07:22:20;;;;;;;5.13;4.00;;;-0.80;99.90;;;;;;5018027;28;20202;-95
2020/12/31 07:27:32;;;;;;;5.05;4.45;;;-0.70;99.90;;;;;;4987690;28;20223;-73
2020/12/31 07:30:10;;;;;;;5.10;4.40;;;-0.60;99.90;;;;;;4990241;28;20203;-72
2020/12/31 07:32:52;;;;;;;5.95;4.13;;;-0.60;99.90;;;;;;4989848;28;20207;-72
2020/12/31 07:35:20;;;;;;;6.28;4.05;;;-0.60;99.90;;;;;;4977778;28;20203;-73
2020/12/31 07:37:50;;;;;;;8.00;3.92;;;-0.60;99.90;;;;;;4990666;28;20207;-72
2020/12/31 07:40:26;;;;;;;5.90;4.15;;;-0.60;99.90;;;;;;4990397;28;20273;-72
2020/12/31 07:42:52;;;;;;;4.93;4.05;;;-0.60;99.90;;;;;;4990125;28;20217;-70
2020/12/31 07:45:19;;;;;;;5.55;4.32;;;-0.60;99.90;;;;;;4990225;28;20207;-71
2020/12/31 07:47:50;;;;;;;7.55;5.03;;;-0.50;99.90;;;;;;4990582;28;20207;-71
2020/12/31 07:50:17;;;;;;;8.35;4.93;;;-0.40;99.90;;;;;;4989611;28;20202;-72
2020/12/31 07:52:43;;;;;;;6.20;4.30;;;-0.40;99.90;;;;;;4989333;28;20207;-70
2020/12/31 07:55:09;;;;;;;5.38;4.00;;;-0.40;99.90;;;;;;4990213;28;20304;-70
2020/12/31 07:57:37;;;;;;;5.00;4.20;;;-0.30;99.90;;;;;;4989627;28;20592;-70
2020/12/31 08:00:04;;;;;;;5.30;4.43;;;-0.30;99.90;;;;;;4989556;28;20270;-73
2020/12/31 08:02:31;;;;;;;5.68;4.80;;;-0.30;99.90;;;;;;4988941;28;20207;-70
2020/12/31 08:04:58;;;;;;;5.38;4.53;;;-0.30;99.90;;;;;;4989792;28;20247;-72
2020/12/31 08:07:24;;;;;;;4.70;3.88;;;-0.20;99.90;;;;;;4989574;28;20210;-72
2020/12/31 08:09:51;;;;;;;4.53;4.03;;;-0.20;99.90;;;;;;4989605;28;20203;-72
2020/12/31 08:12:17;;;;;;;5.28;4.68;;;-0.10;99.90;;;;;;4988965;28;20203;-72
2020/12/31 08:14:45;;;;;;;6.28;4.50;;;-0.20;99.90;;;;;;4989587;28;20714;-72
2020/12/31 08:17:11;;;;;;;5.65;4.80;;;-0.20;99.90;;;;;;4989789;28;20207;-71
2020/12/31 08:19:38;;;;;;;6.60;4.60;;;-0.10;99.90;;;;;;4988898;28;20322;-72
2020/12/31 08:22:14;;;;;;;5.50;5.00;;;0.00;99.90;;;;;;4989064;28;20211;-72
2020/12/31 08:24:48;;;;;;;4.45;4.03;;;0.10;99.90;;;;;;4985622;28;20262;-71
2020/12/31 08:27:18;;;;;;;6.32;4.47;;;0.10;99.90;;;;;;4964601;28;20579;-71
2020/12/31 08:29:45;;;;;;;6.00;4.35;;;0.10;99.90;;;;;;4954769;28;20208;-70
2020/12/31 08:32:21;;;;;;;5.32;4.78;;;0.20;99.90;;;;;;4960777;28;20203;-72
2020/12/31 08:34:52;;;;;;;6.18;4.78;;;0.20;99.90;;;;;;4956568;28;20231;-72
2020/12/31 08:37:21;;;;;;;7.57;5.05;;;0.30;99.90;;;;;;4964386;28;20210;-72
2020/12/31 08:39:50;;;;;;;8.70;4.90;;;0.30;99.90;;;;;;4961768;28;20232;-72
2020/12/31 08:42:19;;;;;;;6.88;5.10;;;0.40;99.90;;;;;;4967688;28;20687;-72
2020/12/31 08:44:54;;;;;;;6.05;4.25;;;0.40;99.90;;;;;;4968557;28;20224;-72
2020/12/31 08:47:22;;;;;;;5.68;5.07;;;0.50;99.90;;;;;;4967869;28;20705;-70
2020/12/31 08:49:54;;;;;;;4.57;4.10;;;0.50;99.90;;;;;;4967685;28;20203;-71
2020/12/31 08:52:25;;;;;;;6.38;4.82;;;0.60;99.90;;;;;;4965127;28;20571;-73
2020/12/31 08:55:11;;;;;;;6.45;5.13;;;0.60;99.90;;;;;;4971309;28;20242;-72
2020/12/31 08:57:38;;;;;;;4.38;3.97;;;0.60;99.90;;;;;;4966902;28;20211;-71
2020/12/31 09:00:05;;;;;;;4.95;4.38;;;0.70;99.90;;;;;;4985692;28;20211;-71
2020/12/31 09:02:32;;;;;;;6.75;4.68;;;0.70;99.90;;;;;;4985389;28;20222;-71
2020/12/31 09:05:12;;;;;;;5.25;4.60;;;0.70;99.90;;;;;;4973788;28;20714;-71
2020/12/31 09:07:39;;;;;;;7.65;4.70;;;0.70;99.90;;;;;;4946395;28;21125;-71
2020/12/31 09:10:13;;;;;;;7.13;4.90;;;0.70;99.90;;;;;;4941362;28;20204;-71
2020/12/31 09:12:39;;;;;;;7.30;5.53;;;0.70;99.90;;;;;;4940884;28;20208;-70
2020/12/31 09:15:05;;;;;;;6.20;5.60;;;0.70;99.90;;;;;;4948389;28;20310;-69
2020/12/31 09:17:34;;;;;;;9.43;5.88;;;0.80;99.90;;;;;;4963425;28;20208;-70
2020/12/31 09:20:00;;;;;;;6.63;5.57;;;0.90;99.90;;;;;;4966601;28;20219;-70
2020/12/31 09:22:27;;;;;;;5.35;4.80;;;0.90;99.90;;;;;;4963499;28;20216;-70
2020/12/31 09:24:54;;;;;;;5.90;4.80;;;0.90;99.90;;;;;;4959848;28;20223;-71
2020/12/31 09:27:24;;;;;;;8.40;5.50;;;0.90;99.90;;;;;;4962675;28;20219;-70
2020/12/31 09:29:56;;;;;;;8.88;5.70;;;1.00;99.90;;;;;;4959523;28;20201;-72
2020/12/31 09:32:24;;;;;;;6.95;5.32;;;1.10;99.90;;;;;;4968945;28;20199;-71
2020/12/31 09:34:50;;;;;;;6.40;5.70;;;1.10;99.90;;;;;;4968025;28;20215;-70
2020/12/31 09:37:17;;;;;;;6.25;5.22;;;1.20;99.90;;;;;;4979435;28;20203;-71
2020/12/31 09:39:44;;;;;;;6.97;5.35;;;1.30;99.90;;;;;;4969064;28;20224;-68
2020/12/31 09:42:11;;;;;;;7.25;5.20;;;1.40;99.90;;;;;;4964989;28;20239;-71
2020/12/31 09:44:39;;;;;;;6.38;5.03;;;1.50;99.90;;;;;;4984435;28;20215;-71
2020/12/31 09:47:06;;;;;;;6.50;5.38;;;1.50;99.90;;;;;;4985325;28;20205;-71
2020/12/31 09:49:33;;;;;;;6.30;4.95;;;1.60;99.90;;;;;;4958878;28;20211;-72
2020/12/31 09:52:00;;;;;;;5.65;4.55;;;1.60;99.90;;;;;;4964705;28;20210;-69
2020/12/31 09:54:29;;;;;;;6.85;4.32;;;1.50;99.90;;;;;;4973522;28;20246;-72
2020/12/31 09:56:58;;;;;;;5.00;4.47;;;1.50;99.90;;;;;;4973247;28;20218;-69
2020/12/31 09:59:25;;;;;;;4.85;4.18;;;1.60;99.90;;;;;;4976267;28;21077;-71
2020/12/31 10:01:52;;;;;;;4.65;4.13;;;1.70;99.90;;;;;;4964136;28;20211;-71
2020/12/31 10:04:18;;;;;;;4.65;3.83;;;1.70;99.90;;;;;;4964666;28;20913;-71
2020/12/31 10:06:45;;;;;;;4.20;3.80;;;1.70;99.90;;;;;;4966530;28;20731;-71
2020/12/31 10:09:14;;;;;;;4.72;3.80;;;1.80;99.90;;;;;;4966405;28;20258;-71
2020/12/31 10:11:45;;;;;;;4.55;3.85;;;1.90;99.90;;;;;;4966315;28;20207;-71
2020/12/31 10:14:11;;;;;;;6.03;4.20;;;2.10;99.90;;;;;;4966303;28;20231;-73
2020/12/31 10:16:39;;;;;;;6.50;4.90;;;2.30;99.90;;;;;;4966963;28;20212;-70
2020/12/31 10:19:05;;;;;;;3.55;3.25;;;2.70;99.90;;;;;;4966679;28;20207;-71
2020/12/31 10:21:31;;;;;;;4.05;3.55;;;3.10;99.90;;;;;;4965802;28;20223;-69
2020/12/31 10:23:58;;;;;;;3.60;3.30;;;3.40;99.90;;;;;;4965467;28;20227;-71
2020/12/31 10:26:25;;;;;;;4.00;3.55;;;3.60;99.90;;;;;;4965548;28;21133;-71
2020/12/31 10:28:52;;;;;;;4.47;3.70;;;3.50;99.90;;;;;;4965622;28;20203;-70
2020/12/31 10:31:19;;;;;;;3.20;2.88;;;3.20;99.90;;;;;;4966663;28;20196;-72
2020/12/31 10:33:46;;;;;;;2.60;2.40;;;3.00;99.90;;;;;;4966786;28;20314;-70
2020/12/31 10:36:13;;;;;;;4.18;3.00;;;2.60;99.90;;;;;;4966837;28;20204;-69
2020/12/31 10:38:41;;;;;;;3.47;3.17;;;2.40;99.90;;;;;;4965164;28;20208;-71
2020/12/31 10:41:08;;;;;;;4.72;3.20;;;2.30;99.90;;;;;;4966445;28;20758;-71
2020/12/31 10:43:34;;;;;;;5.18;2.88;;;2.20;99.90;;;;;;4965989;28;20231;-69
2020/12/31 10:46:01;;;;;;;3.90;3.05;;;2.10;99.90;;;;;;4966868;28;20212;-69
2020/12/31 10:48:27;;;;;;;3.75;3.28;;;2.00;99.90;;;;;;4966362;28;20208;-70
2020/12/31 10:50:58;;;;;;;6.13;3.95;;;1.90;99.90;;;;;;4966578;28;20885;-71
2020/12/31 10:53:25;;;;;;;3.70;3.40;;;1.80;99.90;;;;;;4965646;28;20856;-71
2020/12/31 10:55:51;;;;;;;5.20;4.45;;;1.70;99.90;;;;;;4966182;28;20207;-70
2020/12/31 10:58:17;;;;;;;5.57;4.00;;;1.60;99.90;;;;;;4965924;28;20993;-71
2020/12/31 11:00:43;;;;;;;4.80;4.30;;;1.50;99.90;;;;;;4966569;28;20317;-70
2020/12/31 11:03:09;;;;;;;5.03;3.78;;;1.50;99.90;;;;;;4965572;28;20919;-70
2020/12/31 11:05:36;;;;;;;5.07;4.20;;;1.60;99.90;;;;;;4965649;28;20212;-71
2020/12/31 11:08:03;;;;;;;5.63;4.28;;;1.60;99.90;;;;;;4965742;28;20961;-71
2020/12/31 11:10:30;;;;;;;6.10;4.70;;;1.60;99.90;;;;;;4965625;28;20207;-72
2020/12/31 11:12:56;;;;;;;4.93;4.13;;;1.70;99.90;;;;;;4965183;28;20215;-70
2020/12/31 11:15:22;;;;;;;4.63;4.13;;;1.90;99.90;;;;;;4965277;28;20299;-71
2020/12/31 11:17:49;;;;;;;5.85;4.70;;;2.10;99.90;;;;;;4965463;28;20274;-71
2020/12/31 11:20:15;;;;;;;6.85;5.00;;;2.30;99.90;;;;;;4965098;28;20236;-71
2020/12/31 11:22:42;;;;;;;5.13;4.63;;;2.40;99.90;;;;;;4964650;28;20207;-71
2020/12/31 11:25:09;;;;;;;4.40;4.00;;;2.50;99.90;;;;;;4965775;28;20224;-70
2020/12/31 11:27:35;;;;;;;6.20;4.25;;;2.70;99.90;;;;;;4972860;28;21146;-71
2020/12/31 11:30:01;;;;;;;5.20;4.30;;;2.70;99.90;;;;;;4965507;28;20200;-69
2020/12/31 11:32:27;;;;;;;4.85;4.35;;;2.70;99.90;;;;;;4964343;28;20211;-71
2020/12/31 11:34:53;;;;;;;4.55;4.10;;;2.60;99.90;;;;;;4965796;28;20230;-71
2020/12/31 11:37:20;;;;;;;5.57;4.13;;;2.50;99.90;;;;;;4964189;28;20746;-69
2020/12/31 11:39:46;;;;;;;6.43;4.75;;;2.40;99.90;;;;;;4961186;28;20586;-71
2020/12/31 11:42:13;;;;;;;4.47;4.07;;;2.30;99.90;;;;;;4961675;28;20208;-70
2020/12/31 11:44:41;;;;;;;6.35;4.65;;;2.40;99.90;;;;;;4958848;28;20223;-72
2020/12/31 11:47:08;;;;;;;5.00;4.25;;;2.30;99.90;;;;;;4962595;28;20208;-70
2020/12/31 11:49:34;;;;;;;5.78;4.95;;;2.30;99.90;;;;;;4962640;28;20208;-71
2020/12/31 11:52:00;;;;;;;8.00;4.80;;;2.40;99.90;;;;;;4962214;28;20204;-71
2020/12/31 11:54:26;;;;;;;5.78;4.85;;;2.30;99.90;;;;;;4943812;28;21092;-70
2020/12/31 11:56:53;;;;;;;8.65;4.90;;;2.40;99.90;;;;;;4943142;28;20275;-72
2020/12/31 11:59:20;;;;;;;5.57;4.95;;;2.50;99.90;;;;;;4945668;28;20262;-71
2020/12/31 12:01:50;;;;;;;5.53;4.65;;;2.80;99.90;;;;;;4942547;28;20264;-71
2020/12/31 12:04:17;;;;;;;6.30;4.43;;;3.00;99.90;;;;;;4958421;28;20406;-70
2020/12/31 12:06:48;;;;;;;5.85;4.10;;;3.20;99.90;;;;;;4954467;28;20259;-72
2020/12/31 12:09:14;;;;;;;4.90;4.30;;;3.30;99.90;;;;;;4943226;28;20212;-71
2020/12/31 12:11:40;;;;;;;4.82;4.35;;;3.30;99.90;;;;;;4958455;28;20212;-71
2020/12/31 12:14:07;;;;;;;4.30;3.90;;;3.20;99.90;;;;;;4961779;28;20979;-69
2020/12/31 12:16:34;;;;;;;4.90;4.50;;;3.20;99.90;;;;;;4961183;28;20695;-72
2020/12/31 12:19:00;;;;;;;4.95;3.78;;;3.00;99.90;;;;;;4944457;28;20208;-71
2020/12/31 12:21:26;;;;;;;4.82;4.32;;;3.00;99.90;;;;;;4942399;28;20228;-70
2020/12/31 12:23:53;;;;;;;5.25;3.90;;;3.00;99.90;;;;;;4957207;28;20260;-71
2020/12/31 12:26:19;;;;;;;4.32;3.92;;;3.00;99.90;;;;;;4953937;28;20211;-70
2020/12/31 12:28:45;;;;;;;8.10;4.70;;;3.00;99.90;;;;;;4959584;28;20204;-71
2020/12/31 12:31:11;;;;;;;5.30;4.80;;;2.90;99.90;;;;;;4964158;28;20192;-71
2020/12/31 12:33:39;;;;;;;5.00;4.00;;;2.90;99.90;;;;;;4948387;28;20224;-72
2020/12/31 12:36:06;;;;;;;4.07;3.70;;;2.80;99.90;;;;;;4946304;28;20209;-71
2020/12/31 12:38:32;;;;;;;5.05;3.50;;;2.80;99.90;;;;;;4946275;28;20204;-71
2020/12/31 12:40:58;;;;;;;4.90;3.90;;;2.70;99.90;;;;;;4957142;28;20601;-70
2020/12/31 12:43:24;;;;;;;5.25;4.70;;;2.70;99.90;;;;;;4946394;28;20249;-70
2020/12/31 12:45:50;;;;;;;4.47;4.05;;;2.60;99.90;;;;;;4945935;28;20242;-70
2020/12/31 12:48:17;;;;;;;5.50;4.40;;;2.70;99.90;;;;;;4956295;28;20293;-71
2020/12/31 12:50:44;;;;;;;4.30;3.90;;;2.70;99.90;;;;;;4954416;28;20215;-72
2020/12/31 12:53:10;;;;;;;4.82;4.10;;;2.70;99.90;;;;;;4960200;28;20282;-70
2020/12/31 12:55:36;;;;;;;4.53;4.13;;;2.60;99.90;;;;;;4957542;28;20208;-68
2020/12/31 12:58:02;;;;;;;4.00;3.60;;;2.60;99.90;;;;;;4961493;28;20267;-70
2020/12/31 13:00:28;;;;;;;4.53;3.58;;;2.60;99.90;;;;;;4960679;28;20220;-70
2020/12/31 13:02:54;;;;;;;4.65;4.20;;;2.60;99.90;;;;;;4951017;28;20577;-69